sensor_id;sensor_type;location;lat;lon;timestamp;P1;durP1;ratioP1;P2;durP2;ratioP2
34359;SDS011;20624;55.870;26.506;2023-03-14T00:00:09;3.50;;;1.55;;
34359;SDS011;20624;55.870;26.506;2023-03-14T00:02:38;7.05;;;2.05;;
34359;SDS011;20624;55.870;26.506;2023-03-14T00:05:06;4.95;;;1.85;;
34359;SDS011;20624;55.870;26.506;2023-03-14T00:07:35;16.55;;;2.97;;
34359;SDS011;20624;55.870;26.506;2023-03-14T00:10:10;5.03;;;2.00;;
34359;SDS011;20624;55.870;26.506;2023-03-14T00:12:40;8.70;;;2.42;;
34359;SDS011;20624;55.870;26.506;2023-03-14T00:15:07;8.57;;;2.15;;
34359;SDS011;20624;55.870;26.506;2023-03-14T00:17:35;5.90;;;1.98;;
34359;SDS011;20624;55.870;26.506;2023-03-14T00:20:06;4.93;;;1.50;;
34359;SDS011;20624;55.870;26.506;2023-03-14T00:22:37;4.65;;;1.65;;
34359;SDS011;20624;55.870;26.506;2023-03-14T00:25:05;5.68;;;1.77;;
34359;SDS011;20624;55.870;26.506;2023-03-14T00:27:33;7.45;;;2.33;;
34359;SDS011;20624;55.870;26.506;2023-03-14T00:30:01;8.10;;;2.60;;
34359;SDS011;20624;55.870;26.506;2023-03-14T00:32:28;6.80;;;2.65;;
34359;SDS011;20624;55.870;26.506;2023-03-14T00:34:55;7.07;;;2.13;;
34359;SDS011;20624;55.870;26.506;2023-03-14T00:37:22;9.13;;;2.78;;
34359;SDS011;20624;55.870;26.506;2023-03-14T00:39:50;8.23;;;2.55;;
34359;SDS011;20624;55.870;26.506;2023-03-14T00:42:18;3.97;;;2.08;;
34359;SDS011;20624;55.870;26.506;2023-03-14T00:44:45;5.72;;;2.00;;
34359;SDS011;20624;55.870;26.506;2023-03-14T00:47:12;8.30;;;2.20;;
34359;SDS011;20624;55.870;26.506;2023-03-14T00:49:39;8.30;;;2.30;;
34359;SDS011;20624;55.870;26.506;2023-03-14T00:52:06;7.82;;;2.25;;
34359;SDS011;20624;55.870;26.506;2023-03-14T00:54:34;6.60;;;2.28;;
34359;SDS011;20624;55.870;26.506;2023-03-14T00:57:01;6.95;;;2.42;;
34359;SDS011;20624;55.870;26.506;2023-03-14T00:59:28;10.63;;;2.90;;
34359;SDS011;20624;55.870;26.506;2023-03-14T01:01:55;12.13;;;3.40;;
34359;SDS011;20624;55.870;26.506;2023-03-14T01:04:22;10.10;;;3.08;;
34359;SDS011;20624;55.870;26.506;2023-03-14T01:06:49;9.85;;;2.75;;
34359;SDS011;20624;55.870;26.506;2023-03-14T01:09:16;5.18;;;1.90;;
34359;SDS011;20624;55.870;26.506;2023-03-14T01:11:44;6.60;;;2.78;;
34359;SDS011;20624;55.870;26.506;2023-03-14T01:14:12;5.15;;;2.15;;
34359;SDS011;20624;55.870;26.506;2023-03-14T01:16:40;6.30;;;2.53;;
34359;SDS011;20624;55.870;26.506;2023-03-14T01:19:07;6.65;;;2.28;;
34359;SDS011;20624;55.870;26.506;2023-03-14T01:21:35;9.55;;;2.95;;
34359;SDS011;20624;55.870;26.506;2023-03-14T01:24:03;7.20;;;2.65;;
34359;SDS011;20624;55.870;26.506;2023-03-14T01:26:32;8.15;;;2.90;;
34359;SDS011;20624;55.870;26.506;2023-03-14T01:29:00;8.07;;;3.42;;
34359;SDS011;20624;55.870;26.506;2023-03-14T01:31:28;8.20;;;2.90;;
34359;SDS011;20624;55.870;26.506;2023-03-14T01:33:55;10.00;;;3.22;;
34359;SDS011;20624;55.870;26.506;2023-03-14T01:36:22;5.60;;;2.97;;
34359;SDS011;20624;55.870;26.506;2023-03-14T01:38:50;7.53;;;3.20;;
34359;SDS011;20624;55.870;26.506;2023-03-14T01:41:21;6.75;;;3.55;;
34359;SDS011;20624;55.870;26.506;2023-03-14T01:43:50;9.23;;;3.72;;
34359;SDS011;20624;55.870;26.506;2023-03-14T01:49:07;8.13;;;3.72;;
34359;SDS011;20624;55.870;26.506;2023-03-14T01:54:09;12.07;;;3.65;;
34359;SDS011;20624;55.870;26.506;2023-03-14T01:59:06;17.02;;;4.28;;
34359;SDS011;20624;55.870;26.506;2023-03-14T02:01:34;9.23;;;3.55;;
34359;SDS011;20624;55.870;26.506;2023-03-14T02:04:02;10.60;;;3.60;;
34359;SDS011;20624;55.870;26.506;2023-03-14T02:06:34;11.73;;;3.90;;
34359;SDS011;20624;55.870;26.506;2023-03-14T02:09:22;10.88;;;3.47;;
34359;SDS011;20624;55.870;26.506;2023-03-14T02:11:50;13.75;;;3.80;;
34359;SDS011;20624;55.870;26.506;2023-03-14T02:14:29;8.18;;;3.40;;
34359;SDS011;20624;55.870;26.506;2023-03-14T02:16:59;14.13;;;4.65;;
34359;SDS011;20624;55.870;26.506;2023-03-14T02:19:32;8.02;;;3.47;;
34359;SDS011;20624;55.870;26.506;2023-03-14T02:22:27;10.13;;;4.03;;
34359;SDS011;20624;55.870;26.506;2023-03-14T02:27:40;8.70;;;4.13;;
34359;SDS011;20624;55.870;26.506;2023-03-14T02:30:10;10.68;;;4.80;;
34359;SDS011;20624;55.870;26.506;2023-03-14T02:32:40;10.93;;;4.28;;
34359;SDS011;20624;55.870;26.506;2023-03-14T02:35:11;10.23;;;4.13;;
34359;SDS011;20624;55.870;26.506;2023-03-14T02:37:46;10.30;;;4.80;;
34359;SDS011;20624;55.870;26.506;2023-03-14T02:40:19;11.68;;;5.15;;
34359;SDS011;20624;55.870;26.506;2023-03-14T02:42:49;9.35;;;4.70;;
34359;SDS011;20624;55.870;26.506;2023-03-14T02:47:46;9.80;;;3.92;;
34359;SDS011;20624;55.870;26.506;2023-03-14T02:50:27;12.98;;;5.55;;
34359;SDS011;20624;55.870;26.506;2023-03-14T02:52:57;8.63;;;4.32;;
34359;SDS011;20624;55.870;26.506;2023-03-14T02:55:25;8.68;;;4.82;;
34359;SDS011;20624;55.870;26.506;2023-03-14T02:57:52;12.02;;;5.28;;
34359;SDS011;20624;55.870;26.506;2023-03-14T03:00:20;12.63;;;5.85;;
34359;SDS011;20624;55.870;26.506;2023-03-14T03:02:47;12.57;;;5.63;;
34359;SDS011;20624;55.870;26.506;2023-03-14T03:05:14;9.98;;;5.72;;
34359;SDS011;20624;55.870;26.506;2023-03-14T03:07:41;13.45;;;6.35;;
34359;SDS011;20624;55.870;26.506;2023-03-14T03:10:09;14.38;;;5.85;;
34359;SDS011;20624;55.870;26.506;2023-03-14T03:12:36;12.88;;;5.18;;
34359;SDS011;20624;55.870;26.506;2023-03-14T03:15:03;12.55;;;6.07;;
34359;SDS011;20624;55.870;26.506;2023-03-14T03:17:30;10.75;;;5.78;;
34359;SDS011;20624;55.870;26.506;2023-03-14T03:19:57;10.75;;;5.45;;
34359;SDS011;20624;55.870;26.506;2023-03-14T03:22:24;14.20;;;6.80;;
34359;SDS011;20624;55.870;26.506;2023-03-14T03:24:51;13.32;;;6.82;;
34359;SDS011;20624;55.870;26.506;2023-03-14T03:27:18;14.55;;;8.15;;
34359;SDS011;20624;55.870;26.506;2023-03-14T03:29:45;14.10;;;6.43;;
34359;SDS011;20624;55.870;26.506;2023-03-14T03:32:13;13.18;;;5.68;;
34359;SDS011;20624;55.870;26.506;2023-03-14T03:34:41;12.50;;;6.70;;
34359;SDS011;20624;55.870;26.506;2023-03-14T03:37:08;25.65;;;8.02;;
34359;SDS011;20624;55.870;26.506;2023-03-14T03:39:35;14.27;;;5.90;;
34359;SDS011;20624;55.870;26.506;2023-03-14T03:42:02;11.93;;;5.03;;
34359;SDS011;20624;55.870;26.506;2023-03-14T03:44:31;10.65;;;6.10;;
34359;SDS011;20624;55.870;26.506;2023-03-14T03:46:58;20.30;;;9.38;;
34359;SDS011;20624;55.870;26.506;2023-03-14T03:49:28;13.82;;;8.15;;
34359;SDS011;20624;55.870;26.506;2023-03-14T03:51:56;16.75;;;8.75;;
34359;SDS011;20624;55.870;26.506;2023-03-14T03:54:24;13.05;;;7.28;;
34359;SDS011;20624;55.870;26.506;2023-03-14T03:56:51;19.55;;;6.60;;
34359;SDS011;20624;55.870;26.506;2023-03-14T03:59:18;15.90;;;8.15;;
34359;SDS011;20624;55.870;26.506;2023-03-14T04:01:46;18.58;;;9.57;;
34359;SDS011;20624;55.870;26.506;2023-03-14T04:04:13;18.30;;;10.73;;
34359;SDS011;20624;55.870;26.506;2023-03-14T04:06:41;14.68;;;8.27;;
34359;SDS011;20624;55.870;26.506;2023-03-14T04:09:09;14.80;;;6.43;;
34359;SDS011;20624;55.870;26.506;2023-03-14T04:11:37;18.65;;;8.02;;
34359;SDS011;20624;55.870;26.506;2023-03-14T04:14:04;15.57;;;7.18;;
34359;SDS011;20624;55.870;26.506;2023-03-14T04:16:32;21.73;;;8.95;;
34359;SDS011;20624;55.870;26.506;2023-03-14T04:19:00;15.75;;;7.35;;
34359;SDS011;20624;55.870;26.506;2023-03-14T04:21:27;21.05;;;8.77;;
34359;SDS011;20624;55.870;26.506;2023-03-14T04:23:54;19.38;;;9.38;;
34359;SDS011;20624;55.870;26.506;2023-03-14T04:26:21;21.52;;;8.80;;
34359;SDS011;20624;55.870;26.506;2023-03-14T04:28:48;16.92;;;8.70;;
34359;SDS011;20624;55.870;26.506;2023-03-14T04:31:17;16.20;;;8.20;;
34359;SDS011;20624;55.870;26.506;2023-03-14T04:33:46;16.65;;;7.18;;
34359;SDS011;20624;55.870;26.506;2023-03-14T04:36:13;18.63;;;7.80;;
34359;SDS011;20624;55.870;26.506;2023-03-14T04:38:41;14.95;;;6.80;;
34359;SDS011;20624;55.870;26.506;2023-03-14T04:41:08;18.08;;;8.15;;
34359;SDS011;20624;55.870;26.506;2023-03-14T04:43:35;22.70;;;7.63;;
34359;SDS011;20624;55.870;26.506;2023-03-14T04:46:02;12.65;;;7.15;;
34359;SDS011;20624;55.870;26.506;2023-03-14T04:48:29;26.52;;;9.43;;
34359;SDS011;20624;55.870;26.506;2023-03-14T04:50:56;17.38;;;8.65;;
34359;SDS011;20624;55.870;26.506;2023-03-14T04:53:23;17.60;;;9.77;;
34359;SDS011;20624;55.870;26.506;2023-03-14T04:55:51;20.13;;;9.50;;
34359;SDS011;20624;55.870;26.506;2023-03-14T04:58:20;21.83;;;9.50;;
34359;SDS011;20624;55.870;26.506;2023-03-14T05:00:48;19.73;;;9.50;;
34359;SDS011;20624;55.870;26.506;2023-03-14T05:03:16;15.07;;;7.60;;
34359;SDS011;20624;55.870;26.506;2023-03-14T05:05:43;20.58;;;10.88;;
34359;SDS011;20624;55.870;26.506;2023-03-14T05:08:11;16.42;;;9.60;;
34359;SDS011;20624;55.870;26.506;2023-03-14T05:10:38;17.38;;;8.82;;
34359;SDS011;20624;55.870;26.506;2023-03-14T05:13:05;18.42;;;8.52;;
34359;SDS011;20624;55.870;26.506;2023-03-14T05:15:32;23.90;;;10.27;;
34359;SDS011;20624;55.870;26.506;2023-03-14T05:17:59;18.48;;;6.68;;
34359;SDS011;20624;55.870;26.506;2023-03-14T05:20:26;22.98;;;10.85;;
34359;SDS011;20624;55.870;26.506;2023-03-14T05:22:53;23.38;;;12.13;;
34359;SDS011;20624;55.870;26.506;2023-03-14T05:25:20;19.52;;;8.70;;
34359;SDS011;20624;55.870;26.506;2023-03-14T05:27:47;18.33;;;9.40;;
34359;SDS011;20624;55.870;26.506;2023-03-14T05:30:14;44.80;;;12.02;;
34359;SDS011;20624;55.870;26.506;2023-03-14T05:32:41;38.53;;;12.05;;
34359;SDS011;20624;55.870;26.506;2023-03-14T05:35:08;17.38;;;8.27;;
34359;SDS011;20624;55.870;26.506;2023-03-14T05:37:35;31.70;;;11.32;;
34359;SDS011;20624;55.870;26.506;2023-03-14T05:40:02;30.90;;;11.07;;
34359;SDS011;20624;55.870;26.506;2023-03-14T05:42:29;43.65;;;11.48;;
34359;SDS011;20624;55.870;26.506;2023-03-14T05:44:56;28.92;;;9.02;;
34359;SDS011;20624;55.870;26.506;2023-03-14T05:47:23;79.97;;;18.45;;
34359;SDS011;20624;55.870;26.506;2023-03-14T05:49:50;40.42;;;12.10;;
34359;SDS011;20624;55.870;26.506;2023-03-14T05:52:18;44.72;;;10.75;;
34359;SDS011;20624;55.870;26.506;2023-03-14T05:54:45;31.48;;;12.95;;
34359;SDS011;20624;55.870;26.506;2023-03-14T05:57:12;40.25;;;10.93;;
34359;SDS011;20624;55.870;26.506;2023-03-14T05:59:39;57.38;;;15.88;;
34359;SDS011;20624;55.870;26.506;2023-03-14T06:02:06;70.50;;;15.73;;
34359;SDS011;20624;55.870;26.506;2023-03-14T06:04:34;58.92;;;15.45;;
34359;SDS011;20624;55.870;26.506;2023-03-14T06:07:01;35.47;;;10.77;;
34359;SDS011;20624;55.870;26.506;2023-03-14T06:09:28;66.40;;;17.23;;
34359;SDS011;20624;55.870;26.506;2023-03-14T06:11:55;59.05;;;15.07;;
34359;SDS011;20624;55.870;26.506;2023-03-14T06:14:22;37.58;;;10.52;;
34359;SDS011;20624;55.870;26.506;2023-03-14T06:16:49;38.65;;;12.10;;
34359;SDS011;20624;55.870;26.506;2023-03-14T06:19:16;88.40;;;20.58;;
34359;SDS011;20624;55.870;26.506;2023-03-14T06:21:44;47.15;;;13.38;;
34359;SDS011;20624;55.870;26.506;2023-03-14T06:24:11;39.35;;;11.85;;
34359;SDS011;20624;55.870;26.506;2023-03-14T06:26:38;38.63;;;11.20;;
34359;SDS011;20624;55.870;26.506;2023-03-14T06:29:05;77.68;;;15.48;;
34359;SDS011;20624;55.870;26.506;2023-03-14T06:31:32;77.78;;;17.33;;
34359;SDS011;20624;55.870;26.506;2023-03-14T06:33:59;45.80;;;11.77;;
34359;SDS011;20624;55.870;26.506;2023-03-14T06:36:27;72.60;;;15.25;;
34359;SDS011;20624;55.870;26.506;2023-03-14T06:38:54;44.03;;;10.27;;
34359;SDS011;20624;55.870;26.506;2023-03-14T06:41:21;52.08;;;13.00;;
34359;SDS011;20624;55.870;26.506;2023-03-14T06:43:49;47.35;;;10.18;;
34359;SDS011;20624;55.870;26.506;2023-03-14T06:46:17;39.20;;;6.82;;
34359;SDS011;20624;55.870;26.506;2023-03-14T06:48:44;34.95;;;7.10;;
34359;SDS011;20624;55.870;26.506;2023-03-14T06:51:11;106.47;;;15.18;;
34359;SDS011;20624;55.870;26.506;2023-03-14T06:53:38;41.60;;;6.40;;
34359;SDS011;20624;55.870;26.506;2023-03-14T06:56:06;55.88;;;8.90;;
34359;SDS011;20624;55.870;26.506;2023-03-14T06:58:38;44.67;;;7.57;;
34359;SDS011;20624;55.870;26.506;2023-03-14T07:01:05;80.97;;;11.68;;
34359;SDS011;20624;55.870;26.506;2023-03-14T07:03:37;40.65;;;7.65;;
34359;SDS011;20624;55.870;26.506;2023-03-14T07:06:09;63.08;;;9.88;;
34359;SDS011;20624;55.870;26.506;2023-03-14T07:08:37;54.45;;;9.02;;
34359;SDS011;20624;55.870;26.506;2023-03-14T07:11:05;56.17;;;9.93;;
34359;SDS011;20624;55.870;26.506;2023-03-14T07:13:34;54.67;;;9.00;;
34359;SDS011;20624;55.870;26.506;2023-03-14T07:16:05;143.05;;;22.30;;
34359;SDS011;20624;55.870;26.506;2023-03-14T07:18:33;69.55;;;13.30;;
34359;SDS011;20624;55.870;26.506;2023-03-14T07:21:00;60.40;;;11.77;;
34359;SDS011;20624;55.870;26.506;2023-03-14T07:23:27;50.92;;;10.43;;
34359;SDS011;20624;55.870;26.506;2023-03-14T07:25:55;42.58;;;10.68;;
34359;SDS011;20624;55.870;26.506;2023-03-14T07:28:22;66.18;;;12.52;;
34359;SDS011;20624;55.870;26.506;2023-03-14T07:30:50;59.13;;;10.73;;
34359;SDS011;20624;55.870;26.506;2023-03-14T07:33:17;67.43;;;12.73;;
34359;SDS011;20624;55.870;26.506;2023-03-14T07:35:46;46.55;;;9.55;;
34359;SDS011;20624;55.870;26.506;2023-03-14T07:38:16;62.72;;;11.55;;
34359;SDS011;20624;55.870;26.506;2023-03-14T07:40:46;58.17;;;12.80;;
34359;SDS011;20624;55.870;26.506;2023-03-14T07:43:14;38.75;;;8.35;;
34359;SDS011;20624;55.870;26.506;2023-03-14T07:45:45;125.82;;;20.23;;
34359;SDS011;20624;55.870;26.506;2023-03-14T07:48:16;77.25;;;14.07;;
34359;SDS011;20624;55.870;26.506;2023-03-14T07:50:43;75.40;;;13.90;;
34359;SDS011;20624;55.870;26.506;2023-03-14T07:53:11;44.17;;;9.20;;
34359;SDS011;20624;55.870;26.506;2023-03-14T07:55:39;81.63;;;14.27;;
34359;SDS011;20624;55.870;26.506;2023-03-14T07:58:10;78.88;;;13.80;;
34359;SDS011;20624;55.870;26.506;2023-03-14T08:00:38;83.05;;;15.70;;
34359;SDS011;20624;55.870;26.506;2023-03-14T08:03:05;64.10;;;13.35;;
34359;SDS011;20624;55.870;26.506;2023-03-14T08:05:34;73.70;;;14.30;;
34359;SDS011;20624;55.870;26.506;2023-03-14T08:08:02;53.45;;;11.85;;
34359;SDS011;20624;55.870;26.506;2023-03-14T08:10:30;85.57;;;16.42;;
34359;SDS011;20624;55.870;26.506;2023-03-14T08:13:00;75.57;;;15.27;;
34359;SDS011;20624;55.870;26.506;2023-03-14T08:15:30;72.45;;;19.70;;
34359;SDS011;20624;55.870;26.506;2023-03-14T08:17:58;80.57;;;21.73;;
34359;SDS011;20624;55.870;26.506;2023-03-14T08:20:28;66.50;;;14.90;;
34359;SDS011;20624;55.870;26.506;2023-03-14T08:23:00;64.88;;;15.43;;
34359;SDS011;20624;55.870;26.506;2023-03-14T08:25:28;50.35;;;10.85;;
34359;SDS011;20624;55.870;26.506;2023-03-14T08:28:04;58.13;;;12.00;;
34359;SDS011;20624;55.870;26.506;2023-03-14T08:30:31;67.38;;;14.82;;
34359;SDS011;20624;55.870;26.506;2023-03-14T08:33:00;56.70;;;12.63;;
34359;SDS011;20624;55.870;26.506;2023-03-14T08:35:27;47.50;;;9.70;;
34359;SDS011;20624;55.870;26.506;2023-03-14T08:37:54;40.08;;;9.63;;
34359;SDS011;20624;55.870;26.506;2023-03-14T08:40:22;69.63;;;15.57;;
34359;SDS011;20624;55.870;26.506;2023-03-14T08:42:49;74.30;;;14.25;;
34359;SDS011;20624;55.870;26.506;2023-03-14T08:45:17;58.40;;;11.70;;
34359;SDS011;20624;55.870;26.506;2023-03-14T08:47:44;87.43;;;16.55;;
34359;SDS011;20624;55.870;26.506;2023-03-14T08:50:12;58.53;;;11.15;;
34359;SDS011;20624;55.870;26.506;2023-03-14T08:52:41;65.28;;;12.93;;
34359;SDS011;20624;55.870;26.506;2023-03-14T08:55:11;59.15;;;10.85;;
34359;SDS011;20624;55.870;26.506;2023-03-14T08:57:38;52.08;;;10.25;;
34359;SDS011;20624;55.870;26.506;2023-03-14T09:00:06;57.95;;;11.43;;
34359;SDS011;20624;55.870;26.506;2023-03-14T09:02:38;73.32;;;12.23;;
34359;SDS011;20624;55.870;26.506;2023-03-14T09:05:05;60.38;;;10.85;;
34359;SDS011;20624;55.870;26.506;2023-03-14T09:07:32;52.65;;;10.00;;
34359;SDS011;20624;55.870;26.506;2023-03-14T09:10:00;79.45;;;13.52;;
34359;SDS011;20624;55.870;26.506;2023-03-14T09:12:27;82.30;;;14.43;;
34359;SDS011;20624;55.870;26.506;2023-03-14T09:14:54;63.85;;;12.52;;
34359;SDS011;20624;55.870;26.506;2023-03-14T09:17:21;65.00;;;11.77;;
34359;SDS011;20624;55.870;26.506;2023-03-14T09:19:49;72.95;;;11.65;;
34359;SDS011;20624;55.870;26.506;2023-03-14T09:22:17;90.85;;;15.30;;
34359;SDS011;20624;55.870;26.506;2023-03-14T09:24:44;83.45;;;13.88;;
34359;SDS011;20624;55.870;26.506;2023-03-14T09:27:11;112.57;;;17.25;;
34359;SDS011;20624;55.870;26.506;2023-03-14T09:29:39;95.00;;;15.38;;
34359;SDS011;20624;55.870;26.506;2023-03-14T09:32:06;81.88;;;14.18;;
34359;SDS011;20624;55.870;26.506;2023-03-14T09:34:34;89.40;;;14.50;;
34359;SDS011;20624;55.870;26.506;2023-03-14T09:37:02;59.03;;;11.60;;
34359;SDS011;20624;55.870;26.506;2023-03-14T09:39:30;89.15;;;14.85;;
34359;SDS011;20624;55.870;26.506;2023-03-14T09:41:57;71.57;;;13.68;;
34359;SDS011;20624;55.870;26.506;2023-03-14T09:45:11;71.35;;;13.43;;
34359;SDS011;20624;55.870;26.506;2023-03-14T09:47:18;66.13;;;12.30;;
34359;SDS011;20624;55.870;26.506;2023-03-14T09:49:46;89.70;;;13.73;;
34359;SDS011;20624;55.870;26.506;2023-03-14T09:52:33;67.25;;;12.93;;
34359;SDS011;20624;55.870;26.506;2023-03-14T09:55:14;96.95;;;16.85;;
34359;SDS011;20624;55.870;26.506;2023-03-14T09:57:44;103.78;;;20.27;;
34359;SDS011;20624;55.870;26.506;2023-03-14T10:00:14;64.40;;;13.55;;
34359;SDS011;20624;55.870;26.506;2023-03-14T10:02:54;60.78;;;11.20;;
34359;SDS011;20624;55.870;26.506;2023-03-14T10:05:41;76.25;;;14.65;;
34359;SDS011;20624;55.870;26.506;2023-03-14T10:08:10;50.40;;;9.75;;
34359;SDS011;20624;55.870;26.506;2023-03-14T10:10:37;61.30;;;11.45;;
34359;SDS011;20624;55.870;26.506;2023-03-14T10:15:47;53.45;;;10.75;;
34359;SDS011;20624;55.870;26.506;2023-03-14T10:18:18;54.65;;;11.68;;
34359;SDS011;20624;55.870;26.506;2023-03-14T10:20:51;63.20;;;12.35;;
34359;SDS011;20624;55.870;26.506;2023-03-14T10:23:47;62.60;;;12.13;;
34359;SDS011;20624;55.870;26.506;2023-03-14T10:26:23;47.85;;;10.40;;
34359;SDS011;20624;55.870;26.506;2023-03-14T10:28:54;82.60;;;13.82;;
34359;SDS011;20624;55.870;26.506;2023-03-14T10:31:51;37.67;;;7.60;;
34359;SDS011;20624;55.870;26.506;2023-03-14T10:34:22;63.50;;;11.40;;
34359;SDS011;20624;55.870;26.506;2023-03-14T10:36:55;65.90;;;13.13;;
34359;SDS011;20624;55.870;26.506;2023-03-14T10:41:52;75.47;;;13.00;;
34359;SDS011;20624;55.870;26.506;2023-03-14T10:44:24;52.17;;;10.45;;
34359;SDS011;20624;55.870;26.506;2023-03-14T10:46:56;116.68;;;17.73;;
34359;SDS011;20624;55.870;26.506;2023-03-14T10:49:34;106.65;;;16.73;;
34359;SDS011;20624;55.870;26.506;2023-03-14T10:52:12;78.22;;;13.40;;
34359;SDS011;20624;55.870;26.506;2023-03-14T10:54:49;58.63;;;11.18;;
34359;SDS011;20624;55.870;26.506;2023-03-14T10:57:22;58.13;;;10.15;;
34359;SDS011;20624;55.870;26.506;2023-03-14T10:59:51;56.75;;;10.45;;
34359;SDS011;20624;55.870;26.506;2023-03-14T11:02:32;86.05;;;14.85;;
34359;SDS011;20624;55.870;26.506;2023-03-14T11:07:47;84.45;;;13.95;;
34359;SDS011;20624;55.870;26.506;2023-03-14T11:28:49;77.40;;;15.80;;
34359;SDS011;20624;55.870;26.506;2023-03-14T11:31:27;89.00;;;16.23;;
34359;SDS011;20624;55.870;26.506;2023-03-14T11:34:04;69.32;;;14.13;;
34359;SDS011;20624;55.870;26.506;2023-03-14T11:37:07;71.07;;;12.95;;
34359;SDS011;20624;55.870;26.506;2023-03-14T11:40:18;71.07;;;14.05;;
34359;SDS011;20624;55.870;26.506;2023-03-14T11:43:12;71.95;;;13.15;;
34359;SDS011;20624;55.870;26.506;2023-03-14T11:45:38;70.85;;;12.57;;
34359;SDS011;20624;55.870;26.506;2023-03-14T11:51:01;69.28;;;15.15;;
34359;SDS011;20624;55.870;26.506;2023-03-14T11:53:53;73.28;;;15.93;;
34359;SDS011;20624;55.870;26.506;2023-03-14T11:59:01;50.10;;;11.95;;
34359;SDS011;20624;55.870;26.506;2023-03-14T12:01:45;93.65;;;18.05;;
34359;SDS011;20624;55.870;26.506;2023-03-14T12:04:20;95.25;;;17.10;;
34359;SDS011;20624;55.870;26.506;2023-03-14T12:06:53;59.45;;;12.13;;
34359;SDS011;20624;55.870;26.506;2023-03-14T12:09:29;109.22;;;19.05;;
34359;SDS011;20624;55.870;26.506;2023-03-14T12:12:01;65.90;;;13.75;;
34359;SDS011;20624;55.870;26.506;2023-03-14T12:14:33;48.97;;;11.90;;
34359;SDS011;20624;55.870;26.506;2023-03-14T12:17:06;61.97;;;12.70;;
34359;SDS011;20624;55.870;26.506;2023-03-14T12:19:47;85.18;;;14.68;;
34359;SDS011;20624;55.870;26.506;2023-03-14T12:22:31;52.20;;;11.18;;
34359;SDS011;20624;55.870;26.506;2023-03-14T12:25:03;47.20;;;9.10;;
34359;SDS011;20624;55.870;26.506;2023-03-14T12:27:41;88.22;;;15.05;;
34359;SDS011;20624;55.870;26.506;2023-03-14T12:35:50;98.80;;;16.10;;
34359;SDS011;20624;55.870;26.506;2023-03-14T12:43:55;83.57;;;14.55;;
34359;SDS011;20624;55.870;26.506;2023-03-14T12:46:24;65.75;;;12.27;;
34359;SDS011;20624;55.870;26.506;2023-03-14T12:51:44;59.10;;;12.60;;
34359;SDS011;20624;55.870;26.506;2023-03-14T12:59:29;70.25;;;12.75;;
34359;SDS011;20624;55.870;26.506;2023-03-14T13:04:45;76.60;;;14.57;;
34359;SDS011;20624;55.870;26.506;2023-03-14T13:07:28;56.08;;;12.27;;
34359;SDS011;20624;55.870;26.506;2023-03-14T13:15:27;69.80;;;12.52;;
34359;SDS011;20624;55.870;26.506;2023-03-14T13:18:28;77.32;;;13.27;;
34359;SDS011;20624;55.870;26.506;2023-03-14T13:21:07;75.78;;;13.30;;
34359;SDS011;20624;55.870;26.506;2023-03-14T13:24:00;58.03;;;10.95;;
34359;SDS011;20624;55.870;26.506;2023-03-14T13:26:46;115.53;;;20.13;;
34359;SDS011;20624;55.870;26.506;2023-03-14T13:34:18;79.72;;;12.77;;
34359;SDS011;20624;55.870;26.506;2023-03-14T13:36:46;46.67;;;9.02;;
34359;SDS011;20624;55.870;26.506;2023-03-14T13:39:17;63.90;;;11.00;;
34359;SDS011;20624;55.870;26.506;2023-03-14T13:41:48;69.22;;;11.07;;
34359;SDS011;20624;55.870;26.506;2023-03-14T13:44:16;155.88;;;22.80;;
34359;SDS011;20624;55.870;26.506;2023-03-14T13:47:05;62.55;;;11.75;;
34359;SDS011;20624;55.870;26.506;2023-03-14T13:49:38;72.68;;;16.67;;
34359;SDS011;20624;55.870;26.506;2023-03-14T13:52:24;114.90;;;18.80;;
34359;SDS011;20624;55.870;26.506;2023-03-14T13:54:56;81.13;;;13.38;;
34359;SDS011;20624;55.870;26.506;2023-03-14T13:57:27;80.53;;;14.63;;
34359;SDS011;20624;55.870;26.506;2023-03-14T13:59:59;54.67;;;11.18;;
34359;SDS011;20624;55.870;26.506;2023-03-14T14:02:33;76.20;;;13.10;;
34359;SDS011;20624;55.870;26.506;2023-03-14T14:05:02;63.25;;;10.93;;
34359;SDS011;20624;55.870;26.506;2023-03-14T14:07:30;40.88;;;8.70;;
34359;SDS011;20624;55.870;26.506;2023-03-14T14:09:58;59.35;;;10.68;;
34359;SDS011;20624;55.870;26.506;2023-03-14T14:12:37;88.15;;;15.20;;
34359;SDS011;20624;55.870;26.506;2023-03-14T14:15:16;43.15;;;8.73;;
34359;SDS011;20624;55.870;26.506;2023-03-14T14:17:54;55.72;;;10.45;;
34359;SDS011;20624;55.870;26.506;2023-03-14T14:20:44;87.13;;;15.00;;
34359;SDS011;20624;55.870;26.506;2023-03-14T14:23:31;55.03;;;9.57;;
34359;SDS011;20624;55.870;26.506;2023-03-14T14:25:58;65.05;;;11.65;;
34359;SDS011;20624;55.870;26.506;2023-03-14T14:28:30;81.32;;;14.18;;
34359;SDS011;20624;55.870;26.506;2023-03-14T14:31:18;62.50;;;11.23;;
34359;SDS011;20624;55.870;26.506;2023-03-14T14:33:55;65.28;;;11.60;;
34359;SDS011;20624;55.870;26.506;2023-03-14T14:36:25;127.80;;;19.90;;
34359;SDS011;20624;55.870;26.506;2023-03-14T14:39:00;133.23;;;21.58;;
34359;SDS011;20624;55.870;26.506;2023-03-14T14:41:39;155.90;;;25.90;;
34359;SDS011;20624;55.870;26.506;2023-03-14T14:44:07;163.35;;;25.33;;
34359;SDS011;20624;55.870;26.506;2023-03-14T14:46:38;63.38;;;12.13;;
34359;SDS011;20624;55.870;26.506;2023-03-14T14:49:06;40.78;;;9.43;;
34359;SDS011;20624;55.870;26.506;2023-03-14T14:51:41;59.10;;;11.48;;
34359;SDS011;20624;55.870;26.506;2023-03-14T14:54:21;49.17;;;10.00;;
34359;SDS011;20624;55.870;26.506;2023-03-14T14:57:04;67.22;;;12.65;;
34359;SDS011;20624;55.870;26.506;2023-03-14T14:59:42;36.72;;;7.85;;
34359;SDS011;20624;55.870;26.506;2023-03-14T15:02:24;58.00;;;10.25;;
34359;SDS011;20624;55.870;26.506;2023-03-14T15:05:00;31.20;;;6.95;;
34359;SDS011;20624;55.870;26.506;2023-03-14T15:07:28;36.33;;;7.13;;
34359;SDS011;20624;55.870;26.506;2023-03-14T15:09:55;36.38;;;7.72;;
34359;SDS011;20624;55.870;26.506;2023-03-14T15:12:22;40.28;;;8.27;;
34359;SDS011;20624;55.870;26.506;2023-03-14T15:14:51;38.22;;;10.00;;
34359;SDS011;20624;55.870;26.506;2023-03-14T15:17:18;35.10;;;8.60;;
34359;SDS011;20624;55.870;26.506;2023-03-14T15:19:45;26.27;;;7.60;;
34359;SDS011;20624;55.870;26.506;2023-03-14T15:22:12;40.05;;;9.88;;
34359;SDS011;20624;55.870;26.506;2023-03-14T15:24:42;37.25;;;9.70;;
34359;SDS011;20624;55.870;26.506;2023-03-14T15:27:13;28.42;;;7.18;;
34359;SDS011;20624;55.870;26.506;2023-03-14T15:29:41;23.83;;;6.40;;
34359;SDS011;20624;55.870;26.506;2023-03-14T15:32:12;27.90;;;7.13;;
34359;SDS011;20624;55.870;26.506;2023-03-14T15:34:41;26.58;;;6.93;;
34359;SDS011;20624;55.870;26.506;2023-03-14T15:37:10;111.60;;;17.52;;
34359;SDS011;20624;55.870;26.506;2023-03-14T15:39:39;54.13;;;11.45;;
34359;SDS011;20624;55.870;26.506;2023-03-14T15:42:09;99.43;;;17.40;;
34359;SDS011;20624;55.870;26.506;2023-03-14T15:44:36;28.17;;;7.13;;
34359;SDS011;20624;55.870;26.506;2023-03-14T15:47:05;28.67;;;7.70;;
34359;SDS011;20624;55.870;26.506;2023-03-14T15:49:32;25.25;;;8.55;;
34359;SDS011;20624;55.870;26.506;2023-03-14T15:51:59;31.10;;;7.85;;